createdAt,value
2018-05-26T00:01:50.802Z,18.50
2018-05-26T00:04:17.972Z,18.50
2018-05-26T00:06:45.192Z,18.50
2018-05-26T00:09:12.360Z,18.50
2018-05-26T00:11:39.532Z,18.50
2018-05-26T00:14:08.250Z,18.50
2018-05-26T00:16:35.421Z,18.50
2018-05-26T00:19:02.632Z,18.50
2018-05-26T00:21:30.645Z,18.50
2018-05-26T00:23:57.843Z,18.50
2018-05-26T00:26:25.971Z,18.50
2018-05-26T00:28:53.181Z,18.50
2018-05-26T00:31:21.161Z,18.50
2018-05-26T00:33:48.339Z,18.50
2018-05-26T00:36:15.507Z,18.50
2018-05-26T00:38:42.684Z,18.50
2018-05-26T00:41:09.854Z,18.50
2018-05-26T00:43:37.839Z,18.50
2018-05-26T00:46:05.009Z,18.50
2018-05-26T00:48:32.179Z,18.50
2018-05-26T00:50:59.349Z,18.40
2018-05-26T00:53:26.559Z,18.40
2018-05-26T00:55:53.728Z,18.40
2018-05-26T00:58:20.933Z,18.40
2018-05-26T01:00:48.868Z,18.50
2018-05-26T01:03:16.076Z,18.50
2018-05-26T01:05:43.240Z,18.50
2018-05-26T01:08:10.453Z,18.50
2018-05-26T01:10:38.433Z,18.40
2018-05-26T01:13:06.449Z,18.40
2018-05-26T01:15:33.656Z,18.40
2018-05-26T01:18:01.673Z,18.40
2018-05-26T01:20:28.928Z,18.40
2018-05-26T01:22:56.096Z,18.40
2018-05-26T01:25:23.268Z,18.40
2018-05-26T01:27:50.484Z,18.40
2018-05-26T01:30:17.735Z,18.40
2018-05-26T01:32:44.997Z,18.40
2018-05-26T01:35:12.344Z,18.40
2018-05-26T01:37:39.556Z,18.40
2018-05-26T01:40:07.493Z,18.40
2018-05-26T01:42:34.705Z,18.40
2018-05-26T01:45:01.876Z,18.40
2018-05-26T01:47:29.080Z,18.40
2018-05-26T01:49:57.017Z,18.40
2018-05-26T01:52:24.238Z,18.40
2018-05-26T01:54:51.413Z,18.40
2018-05-26T01:57:18.580Z,18.40
2018-05-26T01:59:45.750Z,18.40
2018-05-26T02:02:13.685Z,18.40
2018-05-26T02:04:40.853Z,18.40
2018-05-26T02:07:08.021Z,18.40
2018-05-26T02:09:35.992Z,18.40
2018-05-26T02:12:03.931Z,18.40
2018-05-26T02:14:31.141Z,18.40
2018-05-26T02:16:58.361Z,18.40
2018-05-26T02:19:26.388Z,18.40
2018-05-26T02:21:53.560Z,18.40
2018-05-26T02:24:20.780Z,18.40
2018-05-26T02:26:47.944Z,18.40
2018-05-26T02:29:15.195Z,18.30
2018-05-26T02:31:42.403Z,18.30
2018-05-26T02:34:10.344Z,18.40
2018-05-26T02:36:37.559Z,18.30
2018-05-26T02:39:05.676Z,18.30
2018-05-26T02:41:32.897Z,18.30
2018-05-26T02:44:00.069Z,18.30
2018-05-26T02:46:27.301Z,18.30
2018-05-26T02:48:54.468Z,18.30
2018-05-26T02:51:21.641Z,18.30
2018-05-26T02:53:48.888Z,18.30
2018-05-26T02:56:16.092Z,18.30
2018-05-26T02:58:43.262Z,18.30
2018-05-26T03:01:10.445Z,18.30
2018-05-26T03:03:37.608Z,18.30
2018-05-26T03:06:10.485Z,18.30
2018-05-26T03:08:43.380Z,18.30
2018-05-26T03:11:17.096Z,18.30
2018-05-26T03:13:50.850Z,18.30
2018-05-26T03:16:23.856Z,18.30
2018-05-26T03:18:51.125Z,18.30
2018-05-26T03:21:18.293Z,18.30
2018-05-26T03:23:46.265Z,18.30
2018-05-26T03:26:14.200Z,18.30
2018-05-26T03:28:42.173Z,18.30
2018-05-26T03:31:09.402Z,18.30
2018-05-26T03:33:36.572Z,18.30
2018-05-26T03:36:03.812Z,18.30
2018-05-26T03:38:31.060Z,18.30
2018-05-26T03:40:58.317Z,18.30
2018-05-26T03:43:25.488Z,18.30
2018-05-26T03:45:52.658Z,18.30
2018-05-26T03:48:19.825Z,18.30
2018-05-26T03:50:47.757Z,18.30
2018-05-26T03:53:15.025Z,18.20
2018-05-26T03:55:48.105Z,18.30
2018-05-26T03:58:21.117Z,18.30
2018-05-26T04:00:49.143Z,18.20
2018-05-26T04:03:16.354Z,18.30
2018-05-26T04:05:44.313Z,18.20
2018-05-26T04:08:12.291Z,18.30
2018-05-26T04:10:40.306Z,18.20
2018-05-26T04:13:08.296Z,18.20
2018-05-26T04:15:35.464Z,18.20
2018-05-26T04:18:02.637Z,18.20
2018-05-26T04:20:30.654Z,18.30
2018-05-26T04:22:57.904Z,18.20
2018-05-26T04:25:25.874Z,18.20
2018-05-26T04:27:53.044Z,18.20
2018-05-26T04:30:20.224Z,18.20
2018-05-26T04:32:48.157Z,18.20
2018-05-26T04:35:15.319Z,18.20
2018-05-26T04:37:42.488Z,18.20
2018-05-26T04:40:09.804Z,18.20
2018-05-26T04:42:36.977Z,18.20
2018-05-26T04:45:04.147Z,18.20
2018-05-26T04:47:31.321Z,18.20
2018-05-26T04:49:59.255Z,18.20
2018-05-26T04:52:26.420Z,18.20
2018-05-26T04:54:53.591Z,18.20
2018-05-26T04:57:21.525Z,18.30
2018-05-26T04:59:48.692Z,18.30
2018-05-26T05:02:15.935Z,18.30
2018-05-26T05:04:43.103Z,18.30
2018-05-26T05:07:11.045Z,18.30
2018-05-26T05:09:38.213Z,18.20
2018-05-26T05:12:05.384Z,18.30
2018-05-26T05:14:33.432Z,18.30
2018-05-26T05:17:00.643Z,18.30
2018-05-26T05:19:27.855Z,18.30
2018-05-26T05:21:55.796Z,18.30
2018-05-26T05:24:23.131Z,18.20
2018-05-26T05:26:50.333Z,18.30
2018-05-26T05:29:18.308Z,18.30
2018-05-26T05:31:46.280Z,18.30
2018-05-26T05:34:14.252Z,18.30
2018-05-26T05:36:42.232Z,18.30
2018-05-26T05:39:10.160Z,18.30
2018-05-26T05:41:37.377Z,18.30
2018-05-26T05:44:04.539Z,18.30
2018-05-26T05:46:31.706Z,18.30
2018-05-26T05:48:58.872Z,18.30
2018-05-26T05:51:26.041Z,18.30
2018-05-26T05:53:53.981Z,18.30
2018-05-26T05:56:22.001Z,18.30
2018-05-26T05:58:49.969Z,18.40
2018-05-26T06:01:17.200Z,18.30
2018-05-26T06:03:45.185Z,18.40
2018-05-26T06:06:12.393Z,18.40
2018-05-26T06:08:39.609Z,18.40
2018-05-26T06:11:06.806Z,18.40
2018-05-26T06:13:33.975Z,18.40
2018-05-26T06:16:01.234Z,18.40
2018-05-26T06:18:28.388Z,18.40
2018-05-26T06:20:56.369Z,18.40
2018-05-26T06:23:24.384Z,18.40
2018-05-26T06:25:51.636Z,18.40
2018-05-26T06:28:18.808Z,18.40
2018-05-26T06:30:46.041Z,18.40
2018-05-26T06:33:13.244Z,18.40
2018-05-26T06:35:40.453Z,18.40
2018-05-26T06:38:07.663Z,18.40
2018-05-26T06:40:35.588Z,18.40
2018-05-26T06:43:02.766Z,18.40
2018-05-26T06:45:30.704Z,18.40
2018-05-26T06:47:57.872Z,18.40
2018-05-26T06:50:25.081Z,18.40
2018-05-26T06:52:52.252Z,18.50
2018-05-26T06:55:19.460Z,18.40
2018-05-26T06:57:47.396Z,18.40
2018-05-26T07:00:14.668Z,18.40
2018-05-26T07:02:41.829Z,18.40
2018-05-26T07:05:09.759Z,18.40
2018-05-26T07:07:36.957Z,18.40
2018-05-26T07:10:04.129Z,18.40
2018-05-26T07:12:31.340Z,18.40
2018-05-26T07:14:59.277Z,18.40
2018-05-26T07:17:26.445Z,18.40
2018-05-26T07:19:53.616Z,18.40
2018-05-26T07:22:21.556Z,18.40
2018-05-26T07:24:49.026Z,18.40
2018-05-26T07:27:16.180Z,18.40
2018-05-26T07:29:43.348Z,18.40
2018-05-26T07:32:11.288Z,18.40
2018-05-26T07:34:38.456Z,18.40
2018-05-26T07:37:05.616Z,18.40
2018-05-26T07:39:33.593Z,18.40
2018-05-26T07:42:01.532Z,18.40
2018-05-26T07:44:28.700Z,18.40
2018-05-26T07:46:56.630Z,18.40
2018-05-26T07:49:23.804Z,18.40
2018-05-26T07:51:51.792Z,18.40
2018-05-26T07:54:19.004Z,18.40
2018-05-26T07:56:46.168Z,18.40
2018-05-26T07:59:13.335Z,18.40
2018-05-26T08:01:40.496Z,18.40
2018-05-26T08:04:07.706Z,18.40
2018-05-26T08:06:34.869Z,18.40
2018-05-26T08:09:02.036Z,18.40
2018-05-26T08:11:29.211Z,18.40
2018-05-26T08:13:57.180Z,18.40
2018-05-26T08:16:25.117Z,18.50
2018-05-26T08:18:52.285Z,18.50
2018-05-26T08:21:19.488Z,18.60
2018-05-26T08:23:46.654Z,18.70
2018-05-26T08:26:13.873Z,18.80
2018-05-26T08:28:41.804Z,19.00
2018-05-26T08:31:08.968Z,19.00
2018-05-26T08:33:36.132Z,19.10
2018-05-26T08:36:04.076Z,19.20
2018-05-26T08:38:31.239Z,19.20
2018-05-26T08:40:58.407Z,19.20
2018-05-26T08:43:26.382Z,19.20
2018-05-26T08:45:54.322Z,19.20
2018-05-26T08:48:21.496Z,19.20
2018-05-26T08:50:49.432Z,19.10
2018-05-26T08:53:16.592Z,19.10
2018-05-26T08:55:43.756Z,19.10
2018-05-26T08:58:10.975Z,19.10
2018-05-26T09:00:38.147Z,19.10
2018-05-26T09:03:05.353Z,19.10
2018-05-26T09:05:32.525Z,19.10
2018-05-26T09:07:59.693Z,19.10
2018-05-26T09:10:26.901Z,19.10
2018-05-26T09:12:54.074Z,19.10
2018-05-26T09:15:21.277Z,19.10
2018-05-26T09:17:48.459Z,19.10
2018-05-26T09:20:15.639Z,19.00
2018-05-26T09:22:42.857Z,19.10
2018-05-26T09:25:10.846Z,19.00
2018-05-26T09:27:38.753Z,19.10
2018-05-26T09:30:05.922Z,19.00
2018-05-26T09:32:33.124Z,19.00
2018-05-26T09:35:00.297Z,19.00
2018-05-26T09:37:28.233Z,19.00
2018-05-26T09:39:55.393Z,19.00
2018-05-26T09:42:22.609Z,19.00
2018-05-26T09:44:50.546Z,19.00
2018-05-26T09:47:17.709Z,19.00
2018-05-26T09:49:44.916Z,19.00
2018-05-26T09:52:12.085Z,19.00
2018-05-26T09:54:39.252Z,19.00
2018-05-26T09:57:06.420Z,19.00
2018-05-26T09:59:33.600Z,19.00
2018-05-26T10:02:01.532Z,19.00
2018-05-26T10:04:28.696Z,19.00
2018-05-26T10:06:55.920Z,19.00
2018-05-26T10:09:23.090Z,19.00
2018-05-26T10:11:50.261Z,19.00
2018-05-26T10:14:17.431Z,19.00
2018-05-26T10:16:46.366Z,19.00
2018-05-26T10:19:13.533Z,19.00
2018-05-26T10:21:40.700Z,19.00
2018-05-26T10:24:07.864Z,19.00
2018-05-26T10:26:35.793Z,19.00
2018-05-26T10:29:02.960Z,19.00
2018-05-26T10:31:30.175Z,19.00
2018-05-26T10:33:57.340Z,19.00
2018-05-26T10:36:24.510Z,19.00
2018-05-26T10:38:52.445Z,18.90
2018-05-26T10:41:19.613Z,19.00
2018-05-26T10:43:46.820Z,18.90
2018-05-26T10:46:20.619Z,18.90
2018-05-26T10:48:48.604Z,18.90
2018-05-26T10:51:16.540Z,18.90
2018-05-26T10:53:43.706Z,18.90
2018-05-26T10:56:10.876Z,18.90
2018-05-26T10:58:38.808Z,18.90
2018-05-26T11:01:05.977Z,18.90
2018-05-26T11:03:33.145Z,18.90
2018-05-26T11:06:01.077Z,18.90
2018-05-26T11:08:28.253Z,18.90
2018-05-26T11:10:56.188Z,18.90
2018-05-26T11:13:23.391Z,18.80
2018-05-26T11:15:51.361Z,18.90
2018-05-26T11:18:19.301Z,18.90
2018-05-26T11:20:46.469Z,18.90
2018-05-26T11:23:14.415Z,18.90
2018-05-26T11:25:41.656Z,18.80
2018-05-26T11:28:08.791Z,18.90
2018-05-26T11:30:35.957Z,18.90
2018-05-26T11:33:03.130Z,18.90
2018-05-26T11:35:30.296Z,18.90
2018-05-26T11:37:58.268Z,18.90
2018-05-26T11:40:26.204Z,18.90
2018-05-26T11:42:53.372Z,18.80
2018-05-26T11:45:20.536Z,18.90
2018-05-26T11:47:48.476Z,18.90
2018-05-26T11:50:15.647Z,18.80
2018-05-26T11:52:42.825Z,18.90
2018-05-26T11:55:10.752Z,18.80
2018-05-26T11:57:37.921Z,18.80
2018-05-26T12:00:05.123Z,18.80
2018-05-26T12:02:32.285Z,18.80
2018-05-26T12:04:59.511Z,18.80
2018-05-26T12:07:26.697Z,18.80
2018-05-26T12:09:53.925Z,18.80
2018-05-26T12:12:21.100Z,18.80
2018-05-26T12:14:48.268Z,18.80
2018-05-26T12:17:15.488Z,18.80
2018-05-26T12:19:42.660Z,18.80
2018-05-26T12:22:09.868Z,18.80
2018-05-26T12:24:37.808Z,18.80
2018-05-26T12:27:05.046Z,18.80
2018-05-26T12:29:32.224Z,18.80
2018-05-26T12:31:59.397Z,18.80
2018-05-26T12:34:26.572Z,18.80
2018-05-26T12:36:53.744Z,18.80
2018-05-26T12:39:21.788Z,18.80
2018-05-26T12:41:48.955Z,18.90
2018-05-26T12:44:16.145Z,18.90
2018-05-26T12:46:43.310Z,18.90
2018-05-26T12:49:11.254Z,18.80
2018-05-26T12:51:38.426Z,18.80
2018-05-26T12:54:06.451Z,18.80
2018-05-26T12:56:33.624Z,18.80
2018-05-26T12:59:00.789Z,18.80
2018-05-26T13:01:27.994Z,18.80
2018-05-26T13:03:55.209Z,18.80
2018-05-26T13:06:23.176Z,18.80
2018-05-26T13:08:50.384Z,18.80
2018-05-26T13:11:17.555Z,18.70
2018-05-26T13:13:44.725Z,18.70
2018-05-26T13:16:11.931Z,18.70
2018-05-26T13:18:39.097Z,18.70
2018-05-26T13:21:06.281Z,18.80
2018-05-26T13:23:33.455Z,18.70
2018-05-26T13:26:01.430Z,18.70
2018-05-26T13:28:29.360Z,18.80
2018-05-26T13:30:56.564Z,18.70
2018-05-26T13:33:23.735Z,18.70
2018-05-26T13:35:50.940Z,18.80
2018-05-26T13:38:18.873Z,18.80
2018-05-26T13:40:46.050Z,18.70
2018-05-26T13:43:13.260Z,18.80
2018-05-26T13:45:40.428Z,18.80
2018-05-26T13:48:07.628Z,18.80
2018-05-26T13:50:35.572Z,18.80
2018-05-26T13:53:02.782Z,18.80
2018-05-26T13:55:29.988Z,18.70
2018-05-26T13:57:57.192Z,18.70
2018-05-26T14:00:24.446Z,18.70
2018-05-26T14:02:51.620Z,18.70
2018-05-26T14:05:18.824Z,18.70
2018-05-26T14:07:46.036Z,18.80
2018-05-26T14:10:13.249Z,18.80
2018-05-26T14:12:40.415Z,18.80
2018-05-26T14:15:07.580Z,18.90
2018-05-26T14:17:34.753Z,18.90
2018-05-26T14:20:01.928Z,18.90
2018-05-26T14:22:29.860Z,18.90
2018-05-26T14:24:57.442Z,18.90
2018-05-26T14:27:25.592Z,18.90
2018-05-26T14:29:52.752Z,18.90
2018-05-26T14:32:19.956Z,18.90
2018-05-26T14:34:47.120Z,18.90
2018-05-26T14:37:14.330Z,18.90
2018-05-26T14:39:42.259Z,18.90
2018-05-26T14:42:09.498Z,18.90
2018-05-26T14:44:36.684Z,18.90
2018-05-26T14:47:03.852Z,18.90
2018-05-26T14:49:31.792Z,18.90
2018-05-26T14:51:59.061Z,18.90
2018-05-26T14:54:27.865Z,18.90
2018-05-26T14:56:56.708Z,18.90
2018-05-26T14:59:23.877Z,18.90
2018-05-26T15:01:51.807Z,18.90
2018-05-26T15:04:18.976Z,18.90
2018-05-26T15:06:46.228Z,18.90
2018-05-26T15:09:14.008Z,18.90
2018-05-26T15:11:41.384Z,18.90
2018-05-26T15:14:08.548Z,18.90
2018-05-26T15:16:36.843Z,18.90
2018-05-26T15:19:04.113Z,18.90
2018-05-26T15:21:31.329Z,18.90
2018-05-26T15:23:58.496Z,18.90
2018-05-26T15:26:26.448Z,18.90
2018-05-26T15:28:53.700Z,18.90
2018-05-26T15:31:20.868Z,18.90
2018-05-26T15:33:48.800Z,19.00
2018-05-26T15:36:15.964Z,19.00
2018-05-26T15:38:43.129Z,19.00
2018-05-26T15:41:10.304Z,19.00
2018-05-26T15:43:38.274Z,18.90
2018-05-26T15:46:06.208Z,18.90
2018-05-26T15:48:33.398Z,18.90
2018-05-26T15:51:01.324Z,18.90
2018-05-26T15:53:28.493Z,18.90
2018-05-26T15:55:55.659Z,18.90
2018-05-26T15:58:23.633Z,18.90
2018-05-26T16:00:51.572Z,18.90
2018-05-26T16:03:18.736Z,18.90
2018-05-26T16:05:45.980Z,18.90
2018-05-26T16:08:13.936Z,18.90
2018-05-26T16:10:41.107Z,18.90
2018-05-26T16:13:08.264Z,18.90
2018-05-26T16:15:35.474Z,18.90
2018-05-26T16:18:02.685Z,18.90
2018-05-26T16:20:30.613Z,18.90
2018-05-26T16:22:57.820Z,18.90
2018-05-26T16:25:24.995Z,18.90
2018-05-26T16:27:52.160Z,18.90
2018-05-26T16:30:19.324Z,18.90
2018-05-26T16:32:46.489Z,18.90
2018-05-26T16:35:13.655Z,18.90
2018-05-26T16:37:41.608Z,18.80
2018-05-26T16:40:08.808Z,18.90
2018-05-26T16:42:35.978Z,18.90
2018-05-26T16:45:03.153Z,18.80
2018-05-26T16:47:30.384Z,18.80
2018-05-26T16:49:57.637Z,18.90
2018-05-26T16:52:24.844Z,18.90
2018-05-26T16:54:52.771Z,18.90
2018-05-26T16:57:19.937Z,18.90
2018-05-26T16:59:47.105Z,18.90
2018-05-26T17:02:14.273Z,18.80
2018-05-26T17:04:42.204Z,18.80
2018-05-26T17:07:09.368Z,18.80
2018-05-26T17:09:36.572Z,18.80
2018-05-26T17:12:03.737Z,18.80
2018-05-26T17:14:30.938Z,18.90
2018-05-26T17:16:58.876Z,18.80
2018-05-26T17:19:26.040Z,18.80
2018-05-26T17:21:53.206Z,18.80
2018-05-26T17:24:20.377Z,18.90
2018-05-26T17:26:48.308Z,18.90
2018-05-26T17:29:15.472Z,18.90
2018-05-26T17:31:42.729Z,18.80
2018-05-26T17:34:09.948Z,18.80
2018-05-26T17:36:37.193Z,18.80
2018-05-26T17:39:04.452Z,18.80
2018-05-26T17:41:31.620Z,18.80
2018-05-26T17:43:58.856Z,18.80
2018-05-26T17:46:26.019Z,18.80
2018-05-26T17:48:53.197Z,18.80
2018-05-26T17:51:20.407Z,18.80
2018-05-26T17:53:48.176Z,18.90
2018-05-26T17:56:15.566Z,18.90
2018-05-26T17:58:42.768Z,18.80
2018-05-26T18:03:57.020Z,18.70
2018-05-26T18:06:30.316Z,18.70
2018-05-26T18:09:00.424Z,18.70
2018-05-26T18:11:28.459Z,18.70
2018-05-26T18:13:56.400Z,18.60
2018-05-26T18:16:23.568Z,18.60
2018-05-26T18:18:50.771Z,18.60
2018-05-26T18:21:18.704Z,18.60
2018-05-26T18:23:45.976Z,18.60
2018-05-26T18:26:13.148Z,18.60
2018-05-26T18:28:41.999Z,18.60
2018-05-26T18:31:13.391Z,18.60
2018-05-26T18:33:40.938Z,18.60
2018-05-26T18:36:08.151Z,18.60
2018-05-26T18:38:35.406Z,18.60
2018-05-26T18:41:02.577Z,18.60
2018-05-26T18:43:29.748Z,18.60
2018-05-26T18:45:56.927Z,18.70
2018-05-26T18:48:24.092Z,18.70
2018-05-26T18:50:51.267Z,18.80
2018-05-26T18:53:18.520Z,18.90
2018-05-26T18:55:45.688Z,19.10
2018-05-26T18:58:12.857Z,19.20
2018-05-26T19:00:40.032Z,19.40
2018-05-26T19:03:08.045Z,19.50
2018-05-26T19:05:35.252Z,19.40
2018-05-26T19:08:03.181Z,19.60
2018-05-26T19:10:30.347Z,19.50
2018-05-26T19:12:57.512Z,19.60
2018-05-26T19:15:25.453Z,19.60
2018-05-26T19:17:52.627Z,19.60
2018-05-26T19:20:19.840Z,19.50
2018-05-26T19:22:47.044Z,19.50
2018-05-26T19:25:14.980Z,19.50
2018-05-26T19:27:42.216Z,19.40
2018-05-26T19:30:09.424Z,19.40
2018-05-26T19:32:37.540Z,19.40
2018-05-26T19:35:04.708Z,19.40
2018-05-26T19:37:31.888Z,19.40
2018-05-26T19:39:59.827Z,19.40
2018-05-26T19:42:27.032Z,19.40
2018-05-26T19:44:54.968Z,19.30
2018-05-26T19:47:22.188Z,19.30
2018-05-26T19:49:49.500Z,19.30
2018-05-26T19:52:17.511Z,19.30
2018-05-26T19:54:44.680Z,19.30
2018-05-26T19:57:11.844Z,19.30
2018-05-26T19:59:39.754Z,19.30
2018-05-26T20:02:06.928Z,19.30
2018-05-26T20:04:34.397Z,19.30
2018-05-26T20:07:01.561Z,19.20
2018-05-26T20:09:28.739Z,19.20
2018-05-26T20:11:55.957Z,19.20
2018-05-26T20:14:23.112Z,19.20
2018-05-26T20:16:50.284Z,19.20
2018-05-26T20:19:17.515Z,19.20
2018-05-26T20:21:44.661Z,19.20
2018-05-26T20:24:11.830Z,19.20
2018-05-26T20:26:38.997Z,19.20
2018-05-26T20:29:06.872Z,19.20
2018-05-26T20:31:34.899Z,19.20
2018-05-26T20:34:02.120Z,19.20
2018-05-26T20:36:29.288Z,19.10
2018-05-26T20:38:56.455Z,19.10
2018-05-26T20:41:23.625Z,19.10
2018-05-26T20:43:51.728Z,19.10
2018-05-26T20:46:19.704Z,19.10
2018-05-26T20:48:47.755Z,19.10
2018-05-26T20:51:14.923Z,19.10
2018-05-26T20:53:42.872Z,19.10
2018-05-26T20:56:10.096Z,19.10
2018-05-26T20:58:37.312Z,19.10
2018-05-26T21:01:05.244Z,19.10
2018-05-26T21:03:32.408Z,19.10
2018-05-26T21:05:59.579Z,19.10
2018-05-26T21:08:27.511Z,19.10
2018-05-26T21:10:54.846Z,19.10
2018-05-26T21:13:22.104Z,19.10
2018-05-26T21:15:49.273Z,19.10
2018-05-26T21:18:16.440Z,19.10
2018-05-26T21:20:44.388Z,19.10
2018-05-26T21:23:11.556Z,19.10
2018-05-26T21:25:38.725Z,19.10
2018-05-26T21:28:06.665Z,19.10
2018-05-26T21:30:34.600Z,19.10
2018-05-26T21:33:01.765Z,19.00
2018-05-26T21:35:28.941Z,19.10
2018-05-26T21:37:56.104Z,19.00
2018-05-26T21:40:23.304Z,19.00
2018-05-26T21:42:50.608Z,19.00
2018-05-26T21:45:17.841Z,19.00
2018-05-26T21:47:45.012Z,19.00
2018-05-26T21:50:12.984Z,19.00
2018-05-26T21:52:40.156Z,19.00
2018-05-26T21:55:07.404Z,19.00
2018-05-26T21:57:34.572Z,19.00
2018-05-26T22:00:02.600Z,19.00
2018-05-26T22:02:29.885Z,19.00
2018-05-26T22:04:57.056Z,19.00
2018-05-26T22:07:25.009Z,19.00
2018-05-26T22:09:52.180Z,19.00
2018-05-26T22:12:20.116Z,19.00
2018-05-26T22:14:47.288Z,19.00
2018-05-26T22:17:15.231Z,19.00
2018-05-26T22:19:42.395Z,19.00
2018-05-26T22:22:09.560Z,19.00
2018-05-26T22:24:37.504Z,18.90
2018-05-26T22:27:04.697Z,19.00
2018-05-26T22:29:32.633Z,18.90
2018-05-26T22:31:59.805Z,19.00
2018-05-26T22:34:27.745Z,18.90
2018-05-26T22:36:55.000Z,18.90
2018-05-26T22:39:23.037Z,18.90
2018-05-26T22:41:50.212Z,18.90
2018-05-26T22:44:17.388Z,18.90
2018-05-26T22:46:44.552Z,18.90
2018-05-26T22:49:12.492Z,18.90
2018-05-26T22:51:39.666Z,18.90
2018-05-26T22:54:07.620Z,18.90
2018-05-26T22:56:34.856Z,18.90
2018-05-26T22:59:02.137Z,18.90
2018-05-26T23:01:29.308Z,18.90
2018-05-26T23:03:57.256Z,18.90
2018-05-26T23:06:24.424Z,18.80
2018-05-26T23:08:52.365Z,18.80
2018-05-26T23:11:19.538Z,18.80
2018-05-26T23:13:46.709Z,18.80
2018-05-26T23:16:14.680Z,18.80
2018-05-26T23:18:42.652Z,18.80
2018-05-26T23:21:10.693Z,18.80
2018-05-26T23:23:37.901Z,18.80
2018-05-26T23:26:05.068Z,18.80
2018-05-26T23:28:32.238Z,18.80
2018-05-26T23:30:59.404Z,18.80
2018-05-26T23:33:26.605Z,18.80
2018-05-26T23:35:53.776Z,18.80
2018-05-26T23:38:20.941Z,18.80
2018-05-26T23:40:48.109Z,18.80
2018-05-26T23:43:15.278Z,18.80
2018-05-26T23:45:43.297Z,18.80
2018-05-26T23:48:10.468Z,18.80
2018-05-26T23:50:37.635Z,18.80
2018-05-26T23:53:04.888Z,18.80
2018-05-26T23:55:32.053Z,18.80
2018-05-26T23:57:59.996Z,18.80
